Time;durP1;ratioP1;P1;durP2;ratioP2;P2;SDS_P1;SDS_P2;PMS_P1;PMS_P2;Temp;Humidity;BMP_temperature;BMP_pressure;BME280_temperature;BME280_humidity;BME280_pressure;Samples;Min_cycle;Max_cycle;Signal;HPM_P1;HPM_P2
2024/03/17 00:01:55;;;;;;;;;;;22.70;41.10;;;;;;5071965;28;19955;-62
2024/03/17 00:04:21;;;;;;;;;;;22.70;41.10;;;;;;5075527;28;19931;-62
2024/03/17 00:06:47;;;;;;;;;;;22.70;41.10;;;;;;5076320;28;19924;-62
2024/03/17 00:09:13;;;;;;;;;;;22.70;41.10;;;;;;5076609;28;19925;-63
2024/03/17 00:11:39;;;;;;;;;;;22.70;41.10;;;;;;5076073;28;20378;-62
2024/03/17 00:14:06;;;;;;;;;;;22.70;41.10;;;;;;5076238;28;19939;-62
2024/03/17 00:16:32;;;;;;;;;;;22.70;41.10;;;;;;5076134;28;19924;-62
2024/03/17 00:18:58;;;;;;;;;;;22.70;41.10;;;;;;5075855;28;19925;-62
2024/03/17 00:21:26;;;;;;;;;;;22.70;41.10;;;;;;5075593;28;19954;-62
2024/03/17 00:23:52;;;;;;;;;;;22.70;41.10;;;;;;5059336;28;19970;-63
2024/03/17 00:26:19;;;;;;;;;;;22.70;41.10;;;;;;5075811;28;19925;-62
2024/03/17 00:28:48;;;;;;;;;;;22.70;41.10;;;;;;5075642;28;19925;-64
2024/03/17 00:31:15;;;;;;;;;;;22.70;41.10;;;;;;5075778;28;20393;-62
2024/03/17 00:33:41;;;;;;;;;;;22.70;41.10;;;;;;5075529;28;19986;-62
2024/03/17 00:36:07;;;;;;;;;;;22.70;41.10;;;;;;5058705;28;19970;-62
2024/03/17 00:38:32;;;;;;;;;;;22.70;41.10;;;;;;5075451;28;19924;-62
2024/03/17 00:40:59;;;;;;;;;;;22.70;41.10;;;;;;5075302;28;19925;-62
2024/03/17 00:43:25;;;;;;;;;;;22.70;41.10;;;;;;5075592;28;19924;-62
2024/03/17 00:45:51;;;;;;;;;;;22.60;41.10;;;;;;5058788;28;19990;-63
2024/03/17 00:48:17;;;;;;;;;;;22.60;41.10;;;;;;5075420;28;19924;-62
2024/03/17 00:50:44;;;;;;;;;;;22.60;41.10;;;;;;5075541;28;20255;-62
2024/03/17 00:53:11;;;;;;;;;;;22.60;41.10;;;;;;5075250;28;20381;-62
2024/03/17 00:55:37;;;;;;;;;;;22.60;41.20;;;;;;5075688;28;19924;-62
2024/03/17 00:58:03;;;;;;;;;;;22.60;41.20;;;;;;5074994;28;19925;-62
2024/03/17 01:00:29;;;;;;;;;;;22.60;41.20;;;;;;5074912;28;19931;-62
2024/03/17 01:02:55;;;;;;;;;;;22.60;41.70;;;;;;5074878;28;19924;-62
2024/03/17 01:05:22;;;;;;;;;;;22.60;41.20;;;;;;5075065;28;19924;-62
2024/03/17 01:07:49;;;;;;;;;;;22.60;41.20;;;;;;5058241;28;19928;-62
2024/03/17 01:10:15;;;;;;;;;;;22.60;41.20;;;;;;5075026;28;20090;-62
2024/03/17 01:12:41;;;;;;;;;;;22.60;41.20;;;;;;5074806;28;20386;-62
2024/03/17 01:15:08;;;;;;;;;;;22.60;41.20;;;;;;5075107;28;20290;-63
2024/03/17 01:17:34;;;;;;;;;;;22.60;41.20;;;;;;5074544;28;19935;-62
2024/03/17 01:20:00;;;;;;;;;;;22.60;41.20;;;;;;5074790;28;19950;-63
2024/03/17 01:22:25;;;;;;;;;;;22.60;41.70;;;;;;5074501;28;20440;-62
2024/03/17 01:24:51;;;;;;;;;;;22.60;41.20;;;;;;5075014;28;19932;-62
2024/03/17 01:27:17;;;;;;;;;;;22.60;41.10;;;;;;5074811;28;19924;-62
2024/03/17 01:29:43;;;;;;;;;;;22.60;41.20;;;;;;5074584;28;19998;-62
2024/03/17 01:32:10;;;;;;;;;;;22.60;41.10;;;;;;5074844;28;19931;-62
2024/03/17 01:34:38;;;;;;;;;;;22.60;41.20;;;;;;5074682;28;19924;-62
2024/03/17 01:37:03;;;;;;;;;;;22.60;41.20;;;;;;5074771;28;19925;-62
2024/03/17 01:39:30;;;;;;;;;;;22.60;41.20;;;;;;5074484;28;19959;-62
2024/03/17 01:41:57;;;;;;;;;;;22.60;41.20;;;;;;5074199;28;19924;-65
2024/03/17 01:44:24;;;;;;;;;;;22.60;41.20;;;;;;5074388;28;19925;-62
2024/03/17 01:46:50;;;;;;;;;;;22.60;41.20;;;;;;5074482;28;19947;-62
2024/03/17 01:49:17;;;;;;;;;;;22.60;41.20;;;;;;5057935;28;20298;-62
2024/03/17 01:51:44;;;;;;;;;;;22.60;41.20;;;;;;5073803;28;19933;-62
2024/03/17 01:54:10;;;;;;;;;;;22.50;41.20;;;;;;5074090;28;19932;-62
2024/03/17 01:56:36;;;;;;;;;;;22.50;41.20;;;;;;5074034;28;20378;-62
2024/03/17 01:59:04;;;;;;;;;;;22.50;41.20;;;;;;5074292;28;19924;-63
2024/03/17 02:01:30;;;;;;;;;;;22.50;41.20;;;;;;5073807;28;19924;-62
2024/03/17 02:03:57;;;;;;;;;;;22.50;41.20;;;;;;5073854;28;19924;-62
2024/03/17 02:06:24;;;;;;;;;;;22.50;41.20;;;;;;5074149;28;19924;-62
2024/03/17 02:08:50;;;;;;;;;;;22.50;41.20;;;;;;5074135;28;19948;-62
2024/03/17 02:11:30;;;;;;;;;;;22.50;41.30;;;;;;5073548;28;19928;-62
2024/03/17 02:13:56;;;;;;;;;;;22.50;41.30;;;;;;5056978;28;19935;-62
2024/03/17 02:16:23;;;;;;;;;;;22.50;41.30;;;;;;5057029;28;19924;-62
2024/03/17 02:18:49;;;;;;;;;;;22.50;41.30;;;;;;5073729;28;20203;-62
2024/03/17 02:21:15;;;;;;;;;;;22.50;41.30;;;;;;5073203;28;20263;-63
2024/03/17 02:23:44;;;;;;;;;;;22.50;41.80;;;;;;5073498;28;20378;-62
2024/03/17 02:26:10;;;;;;;;;;;22.50;41.30;;;;;;5073307;28;19970;-63
2024/03/17 02:28:40;;;;;;;;;;;22.50;41.30;;;;;;5073517;28;19929;-62
2024/03/17 02:31:07;;;;;;;;;;;22.50;41.30;;;;;;5073341;28;19936;-63
2024/03/17 02:33:33;;;;;;;;;;;22.50;41.80;;;;;;5073264;28;19928;-62
2024/03/17 02:35:59;;;;;;;;;;;22.50;41.20;;;;;;5073184;28;19932;-62
2024/03/17 02:41:11;;;;;;;;;;;22.50;41.20;;;;;;5073018;28;19931;-63
2024/03/17 02:43:37;;;;;;;;;;;22.50;41.30;;;;;;5072870;28;19924;-62
2024/03/17 02:46:07;;;;;;;;;;;22.50;41.20;;;;;;5073202;28;19924;-62
2024/03/17 02:48:33;;;;;;;;;;;22.50;41.20;;;;;;5072957;28;19951;-62
2024/03/17 02:50:59;;;;;;;;;;;22.50;41.20;;;;;;5073188;28;19947;-62
2024/03/17 02:53:25;;;;;;;;;;;22.50;41.20;;;;;;5072841;28;20394;-62
2024/03/17 02:55:51;;;;;;;;;;;22.50;41.30;;;;;;5073019;28;19925;-62
2024/03/17 02:58:17;;;;;;;;;;;22.40;41.20;;;;;;5073098;28;19924;-62
2024/03/17 03:00:43;;;;;;;;;;;22.50;41.30;;;;;;5072757;28;20514;-62
2024/03/17 03:03:09;;;;;;;;;;;22.40;41.80;;;;;;5072642;28;19925;-62
2024/03/17 03:05:35;;;;;;;;;;;22.50;41.30;;;;;;5072916;28;19951;-62
2024/03/17 03:08:01;;;;;;;;;;;22.40;41.30;;;;;;5072019;28;20370;-62
2024/03/17 03:10:27;;;;;;;;;;;22.40;41.30;;;;;;5072496;28;19925;-62
2024/03/17 03:12:53;;;;;;;;;;;22.40;41.30;;;;;;5072515;28;19932;-62
2024/03/17 03:15:18;;;;;;;;;;;22.40;41.30;;;;;;5072619;28;20023;-62
2024/03/17 03:17:44;;;;;;;;;;;22.40;41.30;;;;;;5072641;28;20385;-62
2024/03/17 03:20:12;;;;;;;;;;;22.40;41.30;;;;;;5072348;28;20400;-62
2024/03/17 03:22:37;;;;;;;;;;;22.40;41.40;;;;;;5072238;28;19931;-62
2024/03/17 03:25:03;;;;;;;;;;;22.40;41.40;;;;;;5072397;28;19924;-62
2024/03/17 03:27:29;;;;;;;;;;;22.40;41.30;;;;;;5072589;28;19932;-62
2024/03/17 03:29:56;;;;;;;;;;;22.40;41.40;;;;;;5072773;28;20314;-62
2024/03/17 03:32:21;;;;;;;;;;;22.40;41.40;;;;;;5055572;28;19924;-62
2024/03/17 03:34:47;;;;;;;;;;;22.40;41.30;;;;;;5072125;28;19931;-62
2024/03/17 03:37:13;;;;;;;;;;;22.40;41.30;;;;;;5071507;28;19925;-62
2024/03/17 03:39:39;;;;;;;;;;;22.40;41.30;;;;;;5072231;28;19924;-63
2024/03/17 03:42:05;;;;;;;;;;;22.40;41.30;;;;;;5072133;28;19924;-62
2024/03/17 03:44:31;;;;;;;;;;;22.40;41.20;;;;;;5072488;28;20015;-62
2024/03/17 03:46:58;;;;;;;;;;;22.40;41.20;;;;;;5072420;28;19924;-62
2024/03/17 03:49:28;;;;;;;;;;;22.40;41.20;;;;;;5072120;28;20366;-62
2024/03/17 03:51:54;;;;;;;;;;;22.40;41.20;;;;;;5055358;28;19932;-62
2024/03/17 03:54:20;;;;;;;;;;;22.40;41.20;;;;;;5072000;28;19928;-62
2024/03/17 03:56:46;;;;;;;;;;;22.40;41.20;;;;;;5072025;28;19928;-62
2024/03/17 03:59:12;;;;;;;;;;;22.40;41.20;;;;;;5055649;28;19932;-62
2024/03/17 04:01:38;;;;;;;;;;;22.40;41.20;;;;;;5071896;28;19924;-62
2024/03/17 04:04:03;;;;;;;;;;;22.40;41.20;;;;;;5071958;28;19924;-62
2024/03/17 04:06:29;;;;;;;;;;;22.40;41.20;;;;;;5071991;28;19978;-62
2024/03/17 04:08:55;;;;;;;;;;;22.40;41.20;;;;;;5071804;28;19925;-62
2024/03/17 04:11:21;;;;;;;;;;;22.40;41.20;;;;;;5055563;28;19925;-63
2024/03/17 04:13:48;;;;;;;;;;;22.40;41.20;;;;;;5071922;28;19925;-62
2024/03/17 04:16:14;;;;;;;;;;;22.40;41.20;;;;;;5071896;28;19928;-62
2024/03/17 04:18:40;;;;;;;;;;;22.40;41.20;;;;;;5071982;28;19928;-63
2024/03/17 04:21:07;;;;;;;;;;;22.40;41.20;;;;;;5071878;28;19962;-62
2024/03/17 04:23:33;;;;;;;;;;;22.40;41.20;;;;;;5055289;28;20179;-63
2024/03/17 04:25:59;;;;;;;;;;;22.30;41.20;;;;;;5071771;28;20396;-62
2024/03/17 04:28:25;;;;;;;;;;;22.40;41.30;;;;;;5072011;28;19924;-63
2024/03/17 04:30:51;;;;;;;;;;;22.40;41.30;;;;;;5072176;28;19931;-62
2024/03/17 04:33:17;;;;;;;;;;;22.30;41.30;;;;;;5071618;28;20377;-62
2024/03/17 04:35:43;;;;;;;;;;;22.40;41.30;;;;;;5055109;28;19970;-63
2024/03/17 04:38:09;;;;;;;;;;;22.30;41.20;;;;;;5055281;28;19929;-62
2024/03/17 04:40:40;;;;;;;;;;;22.40;41.10;;;;;;5071598;28;20342;-63
2024/03/17 04:43:06;;;;;;;;;;;22.40;41.00;;;;;;5071549;28;19928;-62
2024/03/17 04:45:32;;;;;;;;;;;22.40;40.80;;;;;;5071880;28;19958;-63
2024/03/17 04:47:58;;;;;;;;;;;22.40;40.70;;;;;;5071857;28;19932;-63
2024/03/17 04:50:24;;;;;;;;;;;22.50;40.60;;;;;;5074683;28;19924;-62
2024/03/17 04:52:50;;;;;;;;;;;22.50;40.50;;;;;;5075303;28;19928;-62
2024/03/17 04:55:16;;;;;;;;;;;22.50;40.40;;;;;;5075238;28;19929;-62
2024/03/17 04:57:45;;;;;;;;;;;22.50;40.30;;;;;;5075088;28;20381;-63
2024/03/17 05:00:17;;;;;;;;;;;22.50;40.30;;;;;;5057868;28;20306;-62
2024/03/17 05:02:44;;;;;;;;;;;22.60;40.30;;;;;;5075048;28;20314;-63
2024/03/17 05:05:10;;;;;;;;;;;22.60;40.20;;;;;;5075007;28;19931;-62
2024/03/17 05:07:37;;;;;;;;;;;22.60;40.20;;;;;;5075136;28;19939;-63
2024/03/17 05:10:03;;;;;;;;;;;22.60;40.10;;;;;;5075412;28;19931;-62
2024/03/17 05:12:29;;;;;;;;;;;22.60;40.00;;;;;;5075048;28;19928;-62
2024/03/17 05:14:55;;;;;;;;;;;22.60;39.90;;;;;;5054630;28;19925;-62
2024/03/17 05:17:21;;;;;;;;;;;22.60;39.90;;;;;;5067759;28;20020;-62
2024/03/17 05:19:46;;;;;;;;;;;22.60;39.80;;;;;;5074885;28;19993;-62
2024/03/17 05:22:12;;;;;;;;;;;22.60;39.80;;;;;;5058364;28;19946;-62
2024/03/17 05:24:38;;;;;;;;;;;22.60;39.70;;;;;;5074913;28;19924;-62
2024/03/17 05:27:04;;;;;;;;;;;22.60;39.70;;;;;;5074667;28;19925;-62
2024/03/17 05:29:30;;;;;;;;;;;22.60;39.60;;;;;;5074599;28;19931;-62
2024/03/17 05:31:56;;;;;;;;;;;22.70;39.60;;;;;;5074919;28;20013;-62
2024/03/17 05:34:23;;;;;;;;;;;22.70;39.60;;;;;;5074790;28;19947;-62
2024/03/17 05:36:50;;;;;;;;;;;22.70;39.50;;;;;;5074341;28;19924;-62
2024/03/17 05:39:16;;;;;;;;;;;22.70;39.50;;;;;;5074402;28;19932;-62
2024/03/17 05:41:43;;;;;;;;;;;22.70;39.50;;;;;;5074204;28;19932;-62
2024/03/17 05:44:09;;;;;;;;;;;22.70;39.40;;;;;;5074271;28;19924;-62
2024/03/17 05:46:35;;;;;;;;;;;22.80;39.40;;;;;;5074266;28;19924;-62
2024/03/17 05:49:03;;;;;;;;;;;22.80;39.40;;;;;;5074302;28;19997;-62
2024/03/17 05:51:29;;;;;;;;;;;22.80;39.30;;;;;;5074157;28;19978;-62
2024/03/17 05:53:55;;;;;;;;;;;22.80;39.30;;;;;;5074129;28;19924;-62
2024/03/17 05:56:22;;;;;;;;;;;22.80;39.20;;;;;;5073977;28;19924;-62
2024/03/17 05:58:48;;;;;;;;;;;22.80;39.20;;;;;;5073975;28;19924;-62
2024/03/17 06:01:14;;;;;;;;;;;22.80;39.20;;;;;;5073005;28;19970;-62
2024/03/17 06:03:41;;;;;;;;;;;22.80;39.20;;;;;;5073757;28;19931;-62
2024/03/17 06:06:11;;;;;;;;;;;22.80;39.20;;;;;;5074333;28;19932;-62
2024/03/17 06:08:37;;;;;;;;;;;22.80;39.10;;;;;;5073710;28;19924;-62
2024/03/17 06:11:04;;;;;;;;;;;22.90;39.10;;;;;;5073796;28;19924;-62
2024/03/17 06:13:30;;;;;;;;;;;22.90;39.00;;;;;;5073767;28;19932;-62
2024/03/17 06:16:00;;;;;;;;;;;22.90;39.00;;;;;;5073906;28;19928;-62
2024/03/17 06:18:27;;;;;;;;;;;22.90;39.00;;;;;;5073731;28;19935;-62
2024/03/17 06:20:53;;;;;;;;;;;23.00;39.00;;;;;;5073602;28;19924;-62
2024/03/17 06:23:19;;;;;;;;;;;23.00;38.90;;;;;;5057014;28;20336;-62
2024/03/17 06:25:46;;;;;;;;;;;23.00;38.90;;;;;;5073512;28;19947;-62
2024/03/17 06:28:13;;;;;;;;;;;23.00;38.90;;;;;;5056935;28;19932;-62
2024/03/17 06:30:40;;;;;;;;;;;23.00;38.80;;;;;;5073329;28;20382;-62
2024/03/17 06:33:06;;;;;;;;;;;23.00;38.80;;;;;;5073594;28;19928;-62
2024/03/17 06:35:32;;;;;;;;;;;23.10;38.80;;;;;;5073661;28;20476;-62
2024/03/17 06:37:59;;;;;;;;;;;23.10;38.80;;;;;;5073180;28;20488;-62
2024/03/17 06:40:25;;;;;;;;;;;23.10;38.70;;;;;;5073094;28;19928;-62
2024/03/17 06:42:52;;;;;;;;;;;23.10;38.70;;;;;;5073418;28;19924;-62
2024/03/17 06:45:20;;;;;;;;;;;23.10;38.60;;;;;;5073035;28;19925;-62
2024/03/17 06:47:46;;;;;;;;;;;23.10;38.60;;;;;;5073102;28;19978;-62
2024/03/17 06:50:12;;;;;;;;;;;23.10;38.50;;;;;;5073513;28;19925;-62
2024/03/17 06:52:38;;;;;;;;;;;23.20;38.50;;;;;;5073071;28;20282;-62
2024/03/17 06:55:04;;;;;;;;;;;23.20;38.50;;;;;;5073387;28;19924;-62
2024/03/17 06:57:30;;;;;;;;;;;23.20;38.40;;;;;;5072795;28;19924;-62
2024/03/17 06:59:56;;;;;;;;;;;23.20;38.30;;;;;;5072864;28;19928;-62
2024/03/17 07:02:22;;;;;;;;;;;23.20;38.30;;;;;;5072804;28;19980;-62
2024/03/17 07:04:48;;;;;;;;;;;23.20;38.10;;;;;;5072756;28;19970;-63
2024/03/17 07:07:14;;;;;;;;;;;23.30;38.10;;;;;;5072797;28;19924;-62
2024/03/17 07:09:40;;;;;;;;;;;23.30;38.00;;;;;;5073021;28;19978;-62
2024/03/17 07:12:10;;;;;;;;;;;23.30;37.90;;;;;;5072712;28;19931;-62
2024/03/17 07:14:36;;;;;;;;;;;23.30;37.80;;;;;;5072891;28;19928;-62
2024/03/17 07:17:02;;;;;;;;;;;23.40;37.80;;;;;;5072467;28;20428;-63
2024/03/17 07:19:28;;;;;;;;;;;23.40;37.70;;;;;;5072611;28;19924;-62
2024/03/17 07:21:54;;;;;;;;;;;23.40;37.60;;;;;;5072347;28;19991;-63
2024/03/17 07:24:20;;;;;;;;;;;23.40;37.60;;;;;;5072487;28;19951;-62
2024/03/17 07:26:50;;;;;;;;;;;23.40;37.50;;;;;;5072405;28;19943;-63
2024/03/17 07:29:16;;;;;;;;;;;23.50;37.50;;;;;;5071892;28;19928;-63
2024/03/17 07:31:42;;;;;;;;;;;23.50;37.40;;;;;;5072806;28;19928;-62
2024/03/17 07:34:09;;;;;;;;;;;23.50;37.30;;;;;;5072738;28;19924;-63
2024/03/17 07:36:35;;;;;;;;;;;23.50;37.20;;;;;;5072459;28;19932;-63
2024/03/17 07:39:02;;;;;;;;;;;23.50;37.10;;;;;;5072744;28;19932;-63
2024/03/17 07:41:28;;;;;;;;;;;23.50;37.00;;;;;;5072482;28;20278;-63
2024/03/17 07:43:54;;;;;;;;;;;23.50;36.90;;;;;;5072194;28;19925;-63
2024/03/17 07:46:20;;;;;;;;;;;23.60;36.90;;;;;;5055983;28;19931;-63
2024/03/17 07:48:46;;;;;;;;;;;23.50;36.70;;;;;;5072223;28;19928;-62
2024/03/17 07:51:16;;;;;;;;;;;23.60;36.70;;;;;;5072488;28;19947;-62
2024/03/17 07:53:44;;;;;;;;;;;23.60;36.60;;;;;;5072212;28;19928;-62
2024/03/17 07:56:11;;;;;;;;;;;23.60;36.60;;;;;;5055623;28;19925;-62
2024/03/17 07:58:39;;;;;;;;;;;23.60;36.50;;;;;;5071859;28;19924;-62
2024/03/17 08:01:06;;;;;;;;;;;23.60;36.40;;;;;;5072395;28;19974;-62
2024/03/17 08:03:33;;;;;;;;;;;23.60;36.40;;;;;;5072133;28;19924;-62
2024/03/17 08:06:00;;;;;;;;;;;23.60;36.30;;;;;;5072095;28;19925;-63
2024/03/17 08:08:26;;;;;;;;;;;23.60;36.30;;;;;;5072296;28;19928;-62
2024/03/17 08:10:52;;;;;;;;;;;23.60;36.10;;;;;;5071971;28;19928;-62
2024/03/17 08:13:18;;;;;;;;;;;23.60;36.10;;;;;;5071852;28;19929;-62
2024/03/17 08:15:45;;;;;;;;;;;23.70;36.00;;;;;;5072026;28;19931;-62
2024/03/17 08:18:11;;;;;;;;;;;23.70;35.80;;;;;;5071756;28;19924;-62
2024/03/17 08:20:42;;;;;;;;;;;23.70;35.70;;;;;;5071895;28;19924;-62
2024/03/17 08:23:08;;;;;;;;;;;23.70;35.60;;;;;;5071785;28;19932;-63
2024/03/17 08:25:34;;;;;;;;;;;23.70;35.60;;;;;;5075451;28;19928;-62
2024/03/17 08:28:01;;;;;;;;;;;23.70;35.50;;;;;;5076040;28;20316;-62
2024/03/17 08:30:26;;;;;;;;;;;23.70;35.40;;;;;;5076056;28;20289;-63
2024/03/17 08:32:52;;;;;;;;;;;23.70;35.30;;;;;;5075699;28;19924;-62
2024/03/17 08:35:21;;;;;;;;;;;23.80;35.30;;;;;;5059354;28;19930;-62
2024/03/17 08:37:47;;;;;;;;;;;23.70;35.30;;;;;;5075539;28;19924;-62
2024/03/17 08:40:13;;;;;;;;;;;23.80;35.20;;;;;;5059102;28;20019;-63
2024/03/17 08:42:40;;;;;;;;;;;23.70;35.10;;;;;;5074888;28;20314;-62
2024/03/17 08:45:06;;;;;;;;;;;23.70;35.00;;;;;;5075457;28;19929;-63
2024/03/17 08:47:32;;;;;;;;;;;23.80;34.90;;;;;;5075502;28;19924;-62
2024/03/17 08:50:03;;;;;;;;;;;23.80;34.90;;;;;;5075709;28;19947;-62
2024/03/17 08:52:32;;;;;;;;;;;23.80;34.80;;;;;;5075586;28;19932;-62
2024/03/17 08:54:58;;;;;;;;;;;23.80;34.80;;;;;;5075248;28;20290;-62
2024/03/17 08:57:25;;;;;;;;;;;23.90;34.70;;;;;;5075060;28;19925;-62
2024/03/17 08:59:53;;;;;;;;;;;23.80;34.60;;;;;;5075060;28;19925;-62
2024/03/17 09:02:20;;;;;;;;;;;23.90;34.60;;;;;;5074946;28;19931;-62
2024/03/17 09:04:47;;;;;;;;;;;23.90;34.50;;;;;;5075329;28;20003;-62
2024/03/17 09:07:15;;;;;;;;;;;23.90;34.40;;;;;;5075175;28;19925;-63
2024/03/17 09:09:46;;;;;;;;;;;23.90;34.30;;;;;;5058478;28;19924;-62
2024/03/17 09:12:12;;;;;;;;;;;23.90;34.30;;;;;;5058149;28;20397;-62
2024/03/17 09:14:40;;;;;;;;;;;23.90;34.10;;;;;;5074754;28;19924;-62
2024/03/17 09:17:06;;;;;;;;;;;23.90;34.20;;;;;;5074658;28;19925;-62
2024/03/17 09:19:33;;;;;;;;;;;23.90;34.10;;;;;;5074542;28;20385;-63
2024/03/17 09:21:59;;;;;;;;;;;23.90;34.10;;;;;;5074432;28;19924;-62
2024/03/17 09:24:25;;;;;;;;;;;23.90;34.00;;;;;;5074190;28;20012;-62
2024/03/17 09:26:51;;;;;;;;;;;23.90;33.90;;;;;;5074091;28;19931;-62
2024/03/17 09:29:17;;;;;;;;;;;24.00;33.90;;;;;;5074328;28;19925;-63
2024/03/17 09:31:43;;;;;;;;;;;24.00;33.80;;;;;;5074779;28;19940;-62
2024/03/17 09:34:09;;;;;;;;;;;24.00;33.70;;;;;;5074643;28;20023;-62
2024/03/17 09:36:35;;;;;;;;;;;24.00;33.70;;;;;;5073033;28;19925;-62
2024/03/17 09:39:04;;;;;;;;;;;24.00;34.20;;;;;;5074399;28;19924;-62
2024/03/17 09:41:30;;;;;;;;;;;24.00;33.60;;;;;;5074448;28;19931;-62
2024/03/17 09:43:56;;;;;;;;;;;24.00;33.60;;;;;;5074096;28;20374;-62
2024/03/17 09:46:27;;;;;;;;;;;24.10;33.60;;;;;;5074364;28;19924;-63
2024/03/17 09:48:53;;;;;;;;;;;24.10;33.50;;;;;;5074275;28;19931;-62
2024/03/17 09:51:21;;;;;;;;;;;24.10;33.40;;;;;;5074162;28;20382;-62
2024/03/17 09:53:47;;;;;;;;;;;24.10;33.40;;;;;;5074048;28;19928;-62
2024/03/17 09:56:15;;;;;;;;;;;24.10;33.40;;;;;;5074293;28;19925;-62
2024/03/17 09:58:42;;;;;;;;;;;24.10;33.30;;;;;;5074259;28;19925;-63
2024/03/17 10:01:08;;;;;;;;;;;24.10;33.30;;;;;;5074019;28;19925;-62
2024/03/17 10:04:01;;;;;;;;;;;24.20;33.30;;;;;;5074005;28;19931;-63
2024/03/17 10:06:27;;;;;;;;;;;24.20;33.20;;;;;;5074276;28;19936;-63
2024/03/17 10:08:54;;;;;;;;;;;24.20;33.20;;;;;;5073887;28;20282;-62
2024/03/17 10:11:21;;;;;;;;;;;24.20;33.20;;;;;;5073827;28;19928;-64
2024/03/17 10:13:59;;;;;;;;;;;24.20;33.20;;;;;;5073618;28;19936;-62
2024/03/17 10:16:25;;;;;;;;;;;24.20;33.10;;;;;;5074064;28;19931;-63
2024/03/17 10:19:11;;;;;;;;;;;24.20;33.10;;;;;;5073573;28;19924;-62
2024/03/17 10:21:38;;;;;;;;;;;24.20;33.00;;;;;;5073555;28;19924;-63
2024/03/17 10:24:11;;;;;;;;;;;24.20;33.00;;;;;;5073740;28;19986;-62
2024/03/17 10:26:40;;;;;;;;;;;24.20;33.00;;;;;;5073809;28;19928;-63
2024/03/17 10:29:19;;;;;;;;;;;24.30;33.00;;;;;;5073837;28;19929;-62
2024/03/17 10:31:45;;;;;;;;;;;24.30;33.00;;;;;;5073755;28;19993;-62
2024/03/17 10:34:15;;;;;;;;;;;24.30;32.90;;;;;;5073159;28;20378;-62
2024/03/17 10:36:41;;;;;;;;;;;24.30;32.90;;;;;;5072881;28;19925;-62
2024/03/17 10:39:19;;;;;;;;;;;24.30;32.90;;;;;;5073579;28;19928;-62
2024/03/17 10:41:45;;;;;;;;;;;24.30;32.80;;;;;;5072927;28;19925;-62
2024/03/17 10:44:11;;;;;;;;;;;24.30;32.80;;;;;;5073597;28;19929;-62
2024/03/17 10:46:37;;;;;;;;;;;24.30;32.80;;;;;;5072992;28;20329;-62
2024/03/17 10:49:03;;;;;;;;;;;24.30;32.70;;;;;;5073273;28;20282;-62
2024/03/17 10:51:29;;;;;;;;;;;24.30;32.70;;;;;;5073092;28;20011;-63
2024/03/17 10:53:56;;;;;;;;;;;24.30;32.60;;;;;;5073031;28;19974;-62
2024/03/17 10:56:22;;;;;;;;;;;24.30;32.50;;;;;;5073302;28;19925;-62
2024/03/17 10:58:52;;;;;;;;;;;24.30;32.40;;;;;;5073016;28;20020;-62
2024/03/17 11:01:20;;;;;;;;;;;24.30;32.40;;;;;;5072785;28;19925;-62
2024/03/17 11:03:47;;;;;;;;;;;24.30;32.40;;;;;;5072601;28;20149;-63
2024/03/17 11:06:13;;;;;;;;;;;24.30;32.40;;;;;;5039705;28;19924;-62
2024/03/17 11:08:39;;;;;;;;;;;24.30;32.30;;;;;;5072350;28;19925;-62
2024/03/17 11:11:05;;;;;;;;;;;24.40;32.30;;;;;;5072584;28;20316;-62
2024/03/17 11:13:32;;;;;;;;;;;24.30;32.30;;;;;;5073027;28;19979;-63
2024/03/17 11:15:58;;;;;;;;;;;24.30;32.30;;;;;;5072476;28;19925;-62
2024/03/17 11:18:28;;;;;;;;;;;24.30;32.20;;;;;;5072757;28;20270;-62
2024/03/17 11:21:10;;;;;;;;;;;24.40;32.20;;;;;;5071744;28;19980;-62
2024/03/17 11:23:37;;;;;;;;;;;24.40;32.10;;;;;;5072298;28;19974;-63
2024/03/17 11:26:06;;;;;;;;;;;24.40;32.10;;;;;;5072144;28;20823;-62
2024/03/17 11:28:46;;;;;;;;;;;24.40;32.10;;;;;;5072722;28;20268;-63
2024/03/17 11:31:32;;;;;;;;;;;24.40;32.00;;;;;;5072712;28;19924;-62
2024/03/17 11:34:02;;;;;;;;;;;24.30;31.90;;;;;;5072544;28;19924;-62
2024/03/17 11:36:32;;;;;;;;;;;24.40;32.10;;;;;;5072565;28;19925;-62
2024/03/17 11:39:23;;;;;;;;;;;24.30;32.00;;;;;;5072258;28;19924;-62
2024/03/17 11:41:50;;;;;;;;;;;24.30;32.10;;;;;;5072182;28;19932;-62
2024/03/17 11:44:26;;;;;;;;;;;24.30;32.10;;;;;;5072148;28;20378;-63
2024/03/17 11:46:58;;;;;;;;;;;24.40;32.10;;;;;;5055588;28;19932;-62
2024/03/17 11:49:31;;;;;;;;;;;24.40;32.10;;;;;;5072306;28;19924;-62
2024/03/17 11:51:59;;;;;;;;;;;24.40;32.10;;;;;;5072243;28;19928;-63
2024/03/17 11:54:27;;;;;;;;;;;24.40;32.10;;;;;;5072438;28;19924;-62
2024/03/17 11:56:54;;;;;;;;;;;24.40;32.10;;;;;;5072097;28;20378;-62
2024/03/17 11:59:20;;;;;;;;;;;24.40;32.00;;;;;;5071706;28;19928;-62
2024/03/17 12:01:49;;;;;;;;;;;24.50;32.20;;;;;;5071976;28;19924;-62
2024/03/17 12:04:16;;;;;;;;;;;24.50;32.10;;;;;;5072047;28;19925;-62
2024/03/17 12:06:46;;;;;;;;;;;24.50;32.00;;;;;;5072294;28;19928;-63
2024/03/17 12:09:18;;;;;;;;;;;24.50;31.80;;;;;;5072136;28;19931;-62
2024/03/17 12:11:44;;;;;;;;;;;24.50;31.70;;;;;;5055199;28;19925;-63
2024/03/17 12:14:19;;;;;;;;;;;24.50;31.70;;;;;;5071908;28;19928;-62
2024/03/17 12:16:48;;;;;;;;;;;24.50;31.70;;;;;;5072153;28;19936;-62
2024/03/17 12:19:16;;;;;;;;;;;24.50;31.60;;;;;;5071900;28;19925;-62
2024/03/17 12:21:43;;;;;;;;;;;24.50;31.60;;;;;;5071777;28;19929;-63
2024/03/17 12:24:14;;;;;;;;;;;24.50;31.50;;;;;;5071825;28;19932;-62
2024/03/17 12:26:39;;;;;;;;;;;24.50;31.60;;;;;;5071733;28;19931;-64
2024/03/17 12:29:20;;;;;;;;;;;24.60;31.80;;;;;;5071478;28;19925;-63
2024/03/17 12:31:46;;;;;;;;;;;24.60;31.60;;;;;;5071935;28;19978;-63
2024/03/17 12:34:12;;;;;;;;;;;24.60;31.60;;;;;;5071808;28;20401;-62
2024/03/17 12:36:38;;;;;;;;;;;24.60;31.50;;;;;;5071964;28;19932;-62
2024/03/17 12:39:11;;;;;;;;;;;24.60;31.50;;;;;;5071987;28;19929;-62
2024/03/17 12:41:37;;;;;;;;;;;24.60;31.50;;;;;;5055025;28;19929;-62
2024/03/17 12:44:03;;;;;;;;;;;24.60;31.50;;;;;;5071557;28;20413;-63
2024/03/17 12:46:29;;;;;;;;;;;24.70;31.60;;;;;;5071579;28;19970;-62
2024/03/17 12:48:58;;;;;;;;;;;24.70;31.60;;;;;;5055222;28;19925;-63
2024/03/17 12:51:24;;;;;;;;;;;24.70;31.60;;;;;;5071621;28;19925;-62
2024/03/17 12:54:10;;;;;;;;;;;24.70;31.60;;;;;;5071454;28;19925;-62
2024/03/17 13:02:11;;;;;;;;;;;24.90;31.50;;;;;;5051349;28;19925;-62
2024/03/17 13:04:37;;;;;;;;;;;24.90;31.50;;;;;;5051332;28;20329;-62
2024/03/17 13:07:13;;;;;;;;;;;24.90;31.50;;;;;;5051411;28;19936;-63
2024/03/17 13:09:38;;;;;;;;;;;24.90;31.30;;;;;;5051820;28;19932;-63
2024/03/17 13:12:15;;;;;;;;;;;25.00;31.90;;;;;;5054824;28;19924;-62
2024/03/17 13:14:41;;;;;;;;;;;25.00;31.30;;;;;;5055211;28;19924;-62
2024/03/17 13:17:13;;;;;;;;;;;25.00;31.20;;;;;;5054834;28;19925;-62
2024/03/17 13:19:40;;;;;;;;;;;25.00;31.20;;;;;;5054956;28;19929;-63
2024/03/17 13:22:10;;;;;;;;;;;25.00;31.30;;;;;;5054684;28;20405;-63
2024/03/17 13:24:35;;;;;;;;;;;25.00;31.20;;;;;;5054917;28;19980;-62
2024/03/17 13:27:05;;;;;;;;;;;25.00;31.30;;;;;;5048928;28;19925;-63
2024/03/17 13:29:33;;;;;;;;;;;25.10;31.20;;;;;;5074999;28;19925;-62
2024/03/17 13:31:58;;;;;;;;;;;25.10;31.20;;;;;;5074118;28;20386;-62
2024/03/17 13:34:25;;;;;;;;;;;25.10;31.20;;;;;;5074922;28;19967;-62
2024/03/17 13:36:54;;;;;;;;;;;25.10;31.10;;;;;;5074728;28;19936;-62
2024/03/17 13:39:21;;;;;;;;;;;25.10;30.90;;;;;;5074420;28;19925;-62
2024/03/17 13:41:49;;;;;;;;;;;25.10;31.00;;;;;;5074329;28;20355;-62
2024/03/17 13:44:15;;;;;;;;;;;25.10;31.00;;;;;;5074870;28;19924;-62
2024/03/17 13:46:41;;;;;;;;;;;25.10;31.10;;;;;;5074208;28;19925;-62
2024/03/17 13:49:08;;;;;;;;;;;25.20;31.00;;;;;;5074694;28;20019;-62
2024/03/17 13:51:34;;;;;;;;;;;25.20;31.00;;;;;;5074748;28;19924;-62
2024/03/17 13:54:00;;;;;;;;;;;25.20;31.00;;;;;;5074056;28;20441;-62
2024/03/17 13:56:26;;;;;;;;;;;25.20;31.00;;;;;;5074244;28;20547;-62
2024/03/17 13:58:52;;;;;;;;;;;25.20;31.00;;;;;;5074168;28;19974;-62
2024/03/17 14:01:18;;;;;;;;;;;25.20;31.00;;;;;;5073992;28;19925;-62
2024/03/17 14:03:45;;;;;;;;;;;25.20;31.10;;;;;;5073962;28;19925;-62
2024/03/17 14:06:11;;;;;;;;;;;25.20;31.20;;;;;;5073982;28;19925;-62
2024/03/17 14:08:37;;;;;;;;;;;25.20;31.20;;;;;;5074111;28;19936;-62
2024/03/17 14:11:04;;;;;;;;;;;25.20;31.40;;;;;;5057740;28;20255;-63
2024/03/17 14:13:30;;;;;;;;;;;25.20;31.30;;;;;;5074201;28;19924;-62
2024/03/17 14:15:56;;;;;;;;;;;25.20;31.20;;;;;;5073662;28;20328;-62
2024/03/17 14:18:22;;;;;;;;;;;25.30;31.10;;;;;;5073646;28;20005;-62
2024/03/17 14:20:47;;;;;;;;;;;25.30;31.00;;;;;;5072950;28;19981;-62
2024/03/17 14:23:13;;;;;;;;;;;25.30;30.80;;;;;;5071818;28;19948;-63
2024/03/17 14:25:39;;;;;;;;;;;25.30;30.90;;;;;;5073737;28;19925;-62